Rees, Illinois
Current Conditions -  °F | °C
As of 5:15 AM on Sunday 23 Nov 2014 (Local Time) from KIJX Reporting Station
Overcast Overcast  
Wind Chill: 54°   Ceiling: 9000
Heat Index: 54°   Visibility: 10mi
Dew Point: 45°   Wind: 13mph
Humidity: 73%   Direction: 160°SSE
Pressure: 29.73"   Gusts: 17mph
Location:  39.5952°N, 90.058°W
Report Text: KIJX 231115Z AUTO 16011G15KT 10SM OVC090 12/07 A2973 RMK AO2 T01200072
Loading
Personal Weather Stations






























Interactive Weather Map New forecast layout! Learn more

10-Day Weather Forecast

Advertisements
Track Severe Weather on mobile